Springersville, Indiana
Current Conditions -  °F | °C
As of 5:55 PM on Tuesday 27 Jan 2015 (Local Time) from KI67 Reporting Station
Clear Clear  
Wind Chill: -8°   Ceiling: Unl
Heat Index: -3°   Visibility: 10mi
Dew Point: -9°   Wind: 8mph
Humidity: 64%   Direction: 20°NNE
Pressure: 30.18"   Gusts: NA
Location:  39.6926°N, 84.9821°W
Report Text: KI67 272255Z AUTO 02007KT 10SM CLR M03/M09 A3018 RMK AO1
Loading
Personal Weather Stations






























Interactive Weather Map New forecast layout! Learn more

10-Day Weather Forecast

Advertisements
Track Severe Weather on mobile